createdAt,value
2023-04-29T00:01:16.178Z,61.13
2023-04-29T00:03:45.421Z,61.06
2023-04-29T00:06:13.283Z,61.27
2023-04-29T00:08:41.078Z,61.23
2023-04-29T00:11:08.763Z,61.37
2023-04-29T00:13:36.492Z,60.91
2023-04-29T00:16:04.288Z,61.27
2023-04-29T00:18:32.397Z,61.16
2023-04-29T00:21:02.211Z,61.34
2023-04-29T00:23:29.871Z,61.33
2023-04-29T00:25:57.503Z,61.11
2023-04-29T00:28:25.173Z,61.08
2023-04-29T00:30:53.468Z,60.96
2023-04-29T00:33:21.306Z,61.16
2023-04-29T00:35:49.124Z,61.07
2023-04-29T00:38:18.173Z,61.11
2023-04-29T00:40:46.355Z,61.24
2023-04-29T00:43:14.091Z,61.18
2023-04-29T00:45:41.854Z,61.40
2023-04-29T00:48:09.652Z,61.43
2023-04-29T00:50:37.898Z,61.37
2023-04-29T00:53:05.999Z,60.96
2023-04-29T00:55:36.718Z,60.92
2023-04-29T00:58:04.360Z,60.82
2023-04-29T01:00:32.427Z,61.33
2023-04-29T01:03:00.538Z,60.90
2023-04-29T01:05:28.429Z,61.24
2023-04-29T01:08:13.851Z,60.87
2023-04-29T01:10:50.518Z,61.22
2023-04-29T01:13:25.490Z,61.09
2023-04-29T01:16:02.144Z,61.03
2023-04-29T01:18:34.047Z,61.17
2023-04-29T01:21:01.922Z,61.23
2023-04-29T01:23:31.276Z,61.31
2023-04-29T01:25:59.684Z,61.18
2023-04-29T01:28:41.904Z,61.00
2023-04-29T01:31:16.595Z,61.08
2023-04-29T01:33:53.554Z,61.09
2023-04-29T01:36:32.711Z,60.98
2023-04-29T01:39:10.877Z,61.02
2023-04-29T01:41:44.270Z,60.85
2023-04-29T01:44:17.833Z,60.99
2023-04-29T01:46:54.964Z,60.94
2023-04-29T01:49:22.907Z,61.04
2023-04-29T01:51:50.623Z,60.93
2023-04-29T01:54:19.772Z,61.03
2023-04-29T01:56:47.461Z,60.93
2023-04-29T01:59:15.316Z,60.94
2023-04-29T02:01:42.931Z,61.16
2023-04-29T02:04:10.546Z,61.19
2023-04-29T02:06:38.589Z,60.63
2023-04-29T02:09:06.381Z,60.99
2023-04-29T02:11:35.408Z,61.06
2023-04-29T02:14:03.011Z,61.07
2023-04-29T02:16:31.154Z,61.01
2023-04-29T02:18:58.735Z,61.13
2023-04-29T02:21:27.089Z,61.03
2023-04-29T02:23:55.077Z,61.12
2023-04-29T02:26:23.780Z,60.78
2023-04-29T02:28:53.511Z,60.80
2023-04-29T02:31:21.214Z,60.82
2023-04-29T02:33:48.974Z,60.76
2023-04-29T02:36:17.696Z,60.75
2023-04-29T02:38:45.407Z,61.00
2023-04-29T02:41:17.672Z,60.80
2023-04-29T02:43:45.391Z,61.03
2023-04-29T02:46:14.445Z,61.02
2023-04-29T02:48:42.087Z,60.71
2023-04-29T02:51:09.713Z,60.71
2023-04-29T02:53:37.357Z,60.58
2023-04-29T02:56:06.127Z,60.57
2023-04-29T02:58:33.802Z,60.72
2023-04-29T03:01:01.461Z,60.96
2023-04-29T03:03:30.574Z,61.16
2023-04-29T03:05:58.212Z,60.91
2023-04-29T03:08:26.040Z,60.87
2023-04-29T03:10:53.823Z,61.01
2023-04-29T03:13:21.526Z,60.87
2023-04-29T03:15:49.196Z,61.11
2023-04-29T03:18:16.865Z,60.92
2023-04-29T03:20:45.871Z,60.86
2023-04-29T03:23:13.515Z,60.80
2023-04-29T03:25:41.692Z,60.86
2023-04-29T03:28:09.656Z,60.86
2023-04-29T03:30:37.715Z,60.88
2023-04-29T03:33:05.707Z,61.01
2023-04-29T03:35:33.967Z,60.93
2023-04-29T03:38:02.930Z,60.64
2023-04-29T03:40:30.723Z,60.79
2023-04-29T03:42:58.483Z,60.83
2023-04-29T03:45:26.246Z,60.75
2023-04-29T03:47:54.812Z,60.65
2023-04-29T03:50:22.573Z,60.71
2023-04-29T03:52:50.555Z,60.91
2023-04-29T03:55:19.714Z,60.66
2023-04-29T03:57:47.305Z,61.02
2023-04-29T04:00:15.429Z,60.66
2023-04-29T04:02:43.306Z,61.01
2023-04-29T04:05:11.743Z,60.71
2023-04-29T04:07:39.522Z,60.52
2023-04-29T04:10:07.928Z,60.62
2023-04-29T04:12:36.972Z,60.64
2023-04-29T04:15:05.095Z,60.85
2023-04-29T04:17:32.794Z,60.77
2023-04-29T04:20:00.491Z,60.60
2023-04-29T04:22:28.224Z,60.60
2023-04-29T04:24:56.056Z,60.61
2023-04-29T04:27:24.245Z,60.46
2023-04-29T04:29:56.186Z,60.76
2023-04-29T04:32:24.072Z,60.88
2023-04-29T04:34:52.178Z,61.06
2023-04-29T04:37:19.857Z,60.89
2023-04-29T04:39:47.903Z,60.58
2023-04-29T04:42:15.668Z,60.67
2023-04-29T04:44:43.509Z,60.64
2023-04-29T04:47:12.623Z,60.72
2023-04-29T04:49:40.332Z,60.53
2023-04-29T04:52:07.975Z,60.54
2023-04-29T04:54:35.555Z,60.81
2023-04-29T04:57:06.316Z,60.78
2023-04-29T04:59:34.691Z,60.55
2023-04-29T05:02:02.335Z,60.41
2023-04-29T05:04:31.515Z,60.75
2023-04-29T05:06:59.223Z,60.71
2023-04-29T05:09:27.031Z,60.56
2023-04-29T05:11:54.926Z,60.53
2023-04-29T05:14:22.555Z,60.89
2023-04-29T05:16:51.507Z,60.56
2023-04-29T05:19:19.238Z,60.40
2023-04-29T05:21:48.274Z,60.66
2023-04-29T05:24:16.335Z,60.48
2023-04-29T05:26:44.309Z,60.30
2023-04-29T05:29:12.117Z,60.35
2023-04-29T05:31:39.800Z,59.88
2023-04-29T05:34:07.379Z,59.92
2023-04-29T05:36:35.034Z,59.96
2023-04-29T05:39:04.027Z,59.82
2023-04-29T05:41:31.676Z,59.83
2023-04-29T05:43:59.398Z,59.82
2023-04-29T05:46:27.050Z,59.59
2023-04-29T05:48:54.692Z,60.01
2023-04-29T05:51:22.275Z,59.55
2023-04-29T05:53:49.916Z,59.66
2023-04-29T05:56:19.299Z,59.78
2023-04-29T05:58:47.118Z,59.93
2023-04-29T06:01:14.898Z,59.58
2023-04-29T06:03:42.920Z,59.61
2023-04-29T06:06:11.697Z,59.51
2023-04-29T06:08:39.700Z,59.77
2023-04-29T06:11:07.369Z,59.85
2023-04-29T06:13:36.423Z,59.74
2023-04-29T06:16:04.626Z,59.65
2023-04-29T06:18:32.336Z,59.59
2023-04-29T06:21:00.034Z,59.50
2023-04-29T06:23:27.739Z,59.62
2023-04-29T06:25:55.669Z,59.76
2023-04-29T06:28:23.502Z,59.65
2023-04-29T06:30:52.607Z,60.03
2023-04-29T06:33:20.300Z,59.73
2023-04-29T06:35:47.939Z,60.06
2023-04-29T06:38:15.656Z,59.74
2023-04-29T06:40:43.521Z,60.02
2023-04-29T06:43:11.317Z,60.24
2023-04-29T06:45:39.086Z,60.00
2023-04-29T06:48:08.569Z,59.86
2023-04-29T06:50:36.394Z,60.15
2023-04-29T06:53:04.151Z,59.81
2023-04-29T06:55:31.866Z,60.01
2023-04-29T06:57:59.592Z,60.18
2023-04-29T07:00:27.236Z,60.25
2023-04-29T07:02:55.827Z,60.10
2023-04-29T07:05:25.323Z,60.11
2023-04-29T07:07:53.090Z,60.21
2023-04-29T07:10:20.812Z,60.18
2023-04-29T07:12:48.622Z,60.34
2023-04-29T07:15:16.446Z,60.03
2023-04-29T07:17:44.276Z,60.42
2023-04-29T07:20:13.188Z,60.12
2023-04-29T07:22:42.293Z,60.54
2023-04-29T07:25:11.107Z,60.27
2023-04-29T07:27:38.996Z,60.23
2023-04-29T07:30:08.039Z,60.30
2023-04-29T07:32:35.855Z,60.30
2023-04-29T07:35:03.779Z,60.29
2023-04-29T07:37:31.504Z,60.39
2023-04-29T07:40:00.953Z,60.36
2023-04-29T07:42:28.674Z,60.72
2023-04-29T07:44:56.421Z,60.49
2023-04-29T07:47:24.291Z,60.75
2023-04-29T07:49:52.725Z,60.53
2023-04-29T07:52:20.417Z,60.77
2023-04-29T07:54:48.140Z,60.68
2023-04-29T07:57:17.354Z,60.77
2023-04-29T07:59:45.146Z,60.80
2023-04-29T08:02:13.848Z,60.92
2023-04-29T08:04:42.660Z,61.08
2023-04-29T08:07:10.730Z,61.18
2023-04-29T08:09:38.650Z,61.17
2023-04-29T08:12:06.769Z,61.22
2023-04-29T08:14:35.840Z,61.40
2023-04-29T08:17:03.618Z,61.79
2023-04-29T08:19:31.689Z,61.65
2023-04-29T08:22:01.139Z,61.77
2023-04-29T08:24:29.718Z,61.51
2023-04-29T08:26:58.845Z,62.02
2023-04-29T08:29:26.596Z,61.61
2023-04-29T08:31:56.283Z,61.95
2023-04-29T08:34:24.447Z,61.93
2023-04-29T08:36:52.140Z,62.01
2023-04-29T08:39:20.715Z,61.71
2023-04-29T08:41:51.532Z,61.99
2023-04-29T08:44:19.701Z,61.90
2023-04-29T08:46:48.429Z,62.14
2023-04-29T08:49:17.924Z,62.06
2023-04-29T08:51:45.754Z,62.16
2023-04-29T08:54:13.814Z,62.14
2023-04-29T08:56:45.896Z,62.48
2023-04-29T08:59:16.400Z,62.23
2023-04-29T09:01:49.766Z,62.11
2023-04-29T09:04:30.249Z,62.18
2023-04-29T09:06:59.375Z,62.37
2023-04-29T09:09:27.501Z,62.75
2023-04-29T09:11:55.887Z,62.68
2023-04-29T09:14:24.675Z,62.83
2023-04-29T09:16:52.778Z,62.45
2023-04-29T09:19:35.377Z,62.62
2023-04-29T09:22:05.149Z,62.69
2023-04-29T09:24:33.181Z,62.63
2023-04-29T09:27:03.243Z,62.97
2023-04-29T09:29:33.055Z,62.75
2023-04-29T09:32:01.281Z,62.85
2023-04-29T09:34:35.900Z,63.07
2023-04-29T09:37:03.963Z,63.18
2023-04-29T09:39:40.923Z,62.86
2023-04-29T09:42:09.976Z,62.72
2023-04-29T09:44:38.189Z,62.94
2023-04-29T09:47:07.643Z,62.86
2023-04-29T09:49:39.407Z,62.73
2023-04-29T09:52:09.759Z,62.44
2023-04-29T09:54:39.853Z,62.20
2023-04-29T09:57:09.996Z,62.03
2023-04-29T09:59:39.990Z,61.98
2023-04-29T10:02:15.435Z,62.08
2023-04-29T10:04:47.374Z,62.01
2023-04-29T10:07:17.676Z,62.11
2023-04-29T10:09:48.875Z,62.06
2023-04-29T10:12:19.485Z,61.95
2023-04-29T10:14:53.181Z,61.77
2023-04-29T10:17:31.254Z,62.16
2023-04-29T10:20:07.518Z,62.10
2023-04-29T10:22:42.190Z,62.17
2023-04-29T10:25:13.449Z,62.12
2023-04-29T10:27:45.207Z,61.99
2023-04-29T10:30:15.309Z,62.09
2023-04-29T10:32:51.124Z,62.08
2023-04-29T10:35:25.624Z,62.01
2023-04-29T10:37:55.113Z,62.01
2023-04-29T10:40:29.763Z,62.12
2023-04-29T10:42:59.613Z,61.83
2023-04-29T10:45:31.260Z,61.58
2023-04-29T10:48:16.581Z,61.05
2023-04-29T10:51:05.562Z,61.29
2023-04-29T10:53:33.996Z,61.33
2023-04-29T10:56:07.347Z,61.12
2023-04-29T10:58:41.206Z,60.56
2023-04-29T11:01:11.421Z,59.92
2023-04-29T11:04:00.084Z,59.57
2023-04-29T11:06:42.201Z,59.23
2023-04-29T11:09:14.671Z,59.37
2023-04-29T11:11:47.385Z,59.60
2023-04-29T11:14:16.387Z,59.87
2023-04-29T11:16:53.749Z,59.47
2023-04-29T11:19:22.081Z,59.73
2023-04-29T11:22:05.956Z,59.73
2023-04-29T11:24:35.650Z,59.62
2023-04-29T11:27:05.878Z,59.53
2023-04-29T11:29:35.240Z,59.34
2023-04-29T11:32:03.238Z,59.08
2023-04-29T11:34:31.057Z,59.47
2023-04-29T11:37:00.954Z,59.79
2023-04-29T11:39:29.531Z,59.54
2023-04-29T11:42:05.285Z,59.03
2023-04-29T11:44:35.656Z,59.11
2023-04-29T11:47:04.620Z,58.22
2023-04-29T11:49:33.685Z,57.81
2023-04-29T11:52:03.409Z,57.71
2023-04-29T11:54:32.214Z,57.59
2023-04-29T11:57:00.143Z,57.33
2023-04-29T11:59:28.345Z,57.10
2023-04-29T12:01:56.987Z,56.54
2023-04-29T12:04:24.853Z,56.69
2023-04-29T12:06:53.710Z,56.65
2023-04-29T12:09:23.076Z,56.02
2023-04-29T12:11:51.291Z,55.52
2023-04-29T12:14:20.385Z,55.50
2023-04-29T12:16:48.514Z,55.30
2023-04-29T12:19:16.496Z,55.29
2023-04-29T12:21:52.392Z,55.15
2023-04-29T12:24:23.186Z,54.99
2023-04-29T12:26:51.385Z,55.20
2023-04-29T12:29:23.138Z,54.77
2023-04-29T12:31:51.796Z,54.67
2023-04-29T12:34:26.485Z,54.81
2023-04-29T12:36:57.910Z,54.64
2023-04-29T12:39:27.399Z,54.50
2023-04-29T12:41:59.134Z,54.60
2023-04-29T12:44:27.492Z,55.02
2023-04-29T12:46:58.255Z,54.97
2023-04-29T12:49:26.578Z,54.70
2023-04-29T12:51:54.676Z,54.76
2023-04-29T12:54:22.344Z,54.92
2023-04-29T12:56:52.231Z,55.12
2023-04-29T12:59:19.937Z,54.91
2023-04-29T13:01:48.057Z,55.05
2023-04-29T13:04:16.348Z,55.14
2023-04-29T13:06:44.997Z,55.03
2023-04-29T13:09:18.122Z,55.25
2023-04-29T13:11:46.984Z,55.90
2023-04-29T13:14:17.006Z,55.45
2023-04-29T13:16:45.309Z,55.99
2023-04-29T13:19:30.574Z,55.67
2023-04-29T13:22:03.056Z,55.51
2023-04-29T13:24:33.526Z,55.69
2023-04-29T13:27:03.548Z,56.10
2023-04-29T13:29:32.923Z,56.06
2023-04-29T13:32:01.129Z,56.18
2023-04-29T13:34:29.026Z,56.53
2023-04-29T13:36:56.981Z,56.29
2023-04-29T13:39:25.101Z,56.56
2023-04-29T13:41:58.186Z,56.57
2023-04-29T13:44:37.665Z,56.46
2023-04-29T13:47:21.187Z,56.92
2023-04-29T13:55:26.347Z,56.95
2023-04-29T14:00:37.826Z,57.13
2023-04-29T14:03:03.812Z,57.00
2023-04-29T14:05:32.273Z,57.35
2023-04-29T14:08:00.218Z,57.09
2023-04-29T14:10:28.101Z,57.31
2023-04-29T14:12:55.901Z,57.29
2023-04-29T14:15:23.694Z,57.27
2023-04-29T14:17:51.465Z,57.35
2023-04-29T14:20:20.879Z,57.33
2023-04-29T14:22:48.696Z,57.56
2023-04-29T14:25:16.664Z,57.31
2023-04-29T14:27:44.799Z,57.40
2023-04-29T14:30:13.358Z,57.30
2023-04-29T14:32:41.346Z,57.40
2023-04-29T14:35:10.421Z,57.29
2023-04-29T14:37:40.057Z,57.39
2023-04-29T14:40:09.499Z,57.03
2023-04-29T14:42:37.480Z,57.62
2023-04-29T14:45:06.831Z,57.63
2023-04-29T14:47:35.577Z,57.72
2023-04-29T14:50:04.195Z,57.98
2023-04-29T14:52:32.116Z,58.12
2023-04-29T14:55:01.155Z,57.90
2023-04-29T14:57:29.912Z,58.15
2023-04-29T14:59:57.947Z,57.76
2023-04-29T15:02:25.738Z,57.88
2023-04-29T15:04:53.829Z,58.03
2023-04-29T15:07:23.285Z,58.25
2023-04-29T15:09:51.569Z,58.13
2023-04-29T15:12:22.333Z,58.18
2023-04-29T15:14:50.424Z,58.12
2023-04-29T15:17:18.567Z,58.16
2023-04-29T15:19:46.948Z,58.41
2023-04-29T15:22:14.981Z,58.24
2023-04-29T15:24:43.192Z,58.22
2023-04-29T15:27:11.249Z,58.53
2023-04-29T15:29:41.552Z,58.50
2023-04-29T15:32:10.359Z,58.38
2023-04-29T15:34:38.760Z,58.43
2023-04-29T15:37:06.482Z,58.34
2023-04-29T15:39:34.388Z,58.63
2023-04-29T15:42:02.366Z,58.50
2023-04-29T15:44:31.078Z,58.34
2023-04-29T15:47:01.270Z,58.32
2023-04-29T15:49:29.039Z,58.32
2023-04-29T15:51:56.809Z,58.47
2023-04-29T15:54:24.981Z,58.49
2023-04-29T15:56:52.776Z,58.61
2023-04-29T15:59:21.050Z,58.43
2023-04-29T16:01:48.947Z,58.48
2023-04-29T16:04:18.993Z,58.43
2023-04-29T16:06:47.402Z,58.19
2023-04-29T16:09:15.529Z,58.27
2023-04-29T16:11:44.411Z,58.23
2023-04-29T16:14:12.727Z,58.30
2023-04-29T16:16:40.988Z,58.33
2023-04-29T16:19:10.136Z,58.08
2023-04-29T16:21:39.833Z,58.45
2023-04-29T16:24:07.832Z,58.35
2023-04-29T16:26:36.826Z,58.39
2023-04-29T16:29:05.270Z,58.38
2023-04-29T16:31:33.453Z,58.23
2023-04-29T16:34:01.696Z,58.40
2023-04-29T16:36:30.207Z,58.42
2023-04-29T16:39:00.357Z,58.64
2023-04-29T16:41:28.216Z,58.53
2023-04-29T16:43:56.666Z,58.64
2023-04-29T16:46:25.544Z,58.83
2023-04-29T16:48:56.844Z,58.99
2023-04-29T16:51:26.284Z,59.21
2023-04-29T16:53:54.231Z,58.97
2023-04-29T16:56:23.291Z,59.17
2023-04-29T16:58:51.135Z,59.14
2023-04-29T17:01:19.770Z,59.03
2023-04-29T17:03:48.126Z,59.25
2023-04-29T17:06:16.757Z,59.24
2023-04-29T17:08:45.532Z,59.25
2023-04-29T17:11:13.330Z,59.08
2023-04-29T17:13:44.770Z,59.33
2023-04-29T17:16:14.029Z,59.14
2023-04-29T17:18:41.881Z,59.29
2023-04-29T17:21:09.848Z,59.30
2023-04-29T17:23:38.372Z,59.27
2023-04-29T17:26:07.410Z,59.17
2023-04-29T17:28:35.134Z,59.24
2023-04-29T17:31:06.101Z,59.37
2023-04-29T17:33:35.431Z,59.44
2023-04-29T17:36:05.307Z,59.14
2023-04-29T17:38:34.042Z,59.63
2023-04-29T17:41:02.120Z,59.56
2023-04-29T17:43:32.423Z,59.40
2023-04-29T17:46:00.426Z,59.56
2023-04-29T17:48:29.478Z,59.70
2023-04-29T17:50:57.122Z,59.62
2023-04-29T17:53:24.911Z,59.78
2023-04-29T17:55:52.620Z,59.45
2023-04-29T17:58:21.369Z,59.19
2023-04-29T18:00:49.130Z,59.18
2023-04-29T18:03:16.897Z,59.39
2023-04-29T18:05:47.323Z,59.24
2023-04-29T18:08:15.104Z,59.11
2023-04-29T18:10:43.027Z,59.08
2023-04-29T18:13:11.576Z,59.21
2023-04-29T18:15:39.893Z,59.20
2023-04-29T18:18:08.003Z,59.06
2023-04-29T18:20:36.264Z,59.01
2023-04-29T18:23:05.268Z,59.05
2023-04-29T18:25:36.495Z,59.19
2023-04-29T18:28:19.400Z,59.06
2023-04-29T18:30:52.454Z,59.28
2023-04-29T18:33:20.371Z,58.88
2023-04-29T18:35:48.234Z,59.12
2023-04-29T18:38:17.567Z,59.10
2023-04-29T18:40:45.569Z,58.95
2023-04-29T18:43:17.023Z,58.95
2023-04-29T18:45:44.954Z,59.01
2023-04-29T18:48:13.060Z,58.95
2023-04-29T18:50:41.341Z,59.06
2023-04-29T18:53:09.789Z,59.15
2023-04-29T18:55:38.959Z,58.87
2023-04-29T18:58:06.549Z,58.70
2023-04-29T19:00:34.096Z,58.74
2023-04-29T19:03:01.878Z,58.66
2023-04-29T19:05:29.727Z,58.76
2023-04-29T19:07:57.554Z,58.83
2023-04-29T19:10:26.081Z,58.75
2023-04-29T19:12:55.392Z,59.01
2023-04-29T19:15:25.196Z,58.61
2023-04-29T19:17:52.981Z,58.69
2023-04-29T19:20:20.917Z,58.66
2023-04-29T19:22:48.714Z,58.71
2023-04-29T19:25:16.415Z,58.66
2023-04-29T19:27:45.651Z,58.55
2023-04-29T19:30:14.949Z,58.62
2023-04-29T19:32:42.881Z,58.46
2023-04-29T19:35:11.860Z,58.59
2023-04-29T19:37:39.549Z,58.74
2023-04-29T19:40:10.134Z,58.48
2023-04-29T19:42:38.122Z,58.48
2023-04-29T19:45:07.597Z,58.49
2023-04-29T19:47:37.200Z,58.48
2023-04-29T19:50:06.411Z,58.41
2023-04-29T19:52:34.120Z,58.57
2023-04-29T19:55:01.944Z,58.47
2023-04-29T19:57:30.523Z,58.49
2023-04-29T19:59:58.368Z,58.30
2023-04-29T20:02:26.451Z,58.64
2023-04-29T20:04:55.981Z,58.41
2023-04-29T20:07:23.680Z,58.44
2023-04-29T20:09:51.678Z,58.58
2023-04-29T20:12:19.590Z,58.35
2023-04-29T20:14:47.330Z,58.41
2023-04-29T20:17:16.401Z,58.49
2023-04-29T20:19:44.470Z,58.39
2023-04-29T20:22:13.964Z,58.35
2023-04-29T20:24:42.306Z,58.54
2023-04-29T20:27:10.161Z,58.43
2023-04-29T20:29:38.301Z,58.79
2023-04-29T20:32:07.142Z,58.58
2023-04-29T20:34:38.525Z,58.62
2023-04-29T20:37:07.125Z,58.79
2023-04-29T20:39:37.125Z,59.01
2023-04-29T20:42:05.379Z,59.15
2023-04-29T20:44:34.122Z,59.35
2023-04-29T20:47:02.144Z,59.53
2023-04-29T20:49:30.575Z,59.58
2023-04-29T20:51:59.720Z,59.68
2023-04-29T20:54:28.410Z,59.78
2023-04-29T20:56:58.383Z,59.74
2023-04-29T20:59:26.554Z,59.89
2023-04-29T21:01:54.465Z,59.88
2023-04-29T21:04:23.198Z,59.88
2023-04-29T21:06:52.755Z,59.84
2023-04-29T21:09:21.475Z,59.89
2023-04-29T21:11:50.132Z,59.85
2023-04-29T21:14:20.074Z,59.97
2023-04-29T21:16:48.134Z,59.86
2023-04-29T21:19:16.824Z,59.91
2023-04-29T21:21:44.803Z,59.96
2023-04-29T21:24:12.943Z,60.04
2023-04-29T21:26:41.121Z,59.92
2023-04-29T21:29:09.114Z,60.06
2023-04-29T21:31:38.616Z,59.83
2023-04-29T21:34:07.073Z,59.76
2023-04-29T21:36:34.724Z,59.65
2023-04-29T21:39:03.149Z,59.63
2023-04-29T21:41:37.467Z,59.82
2023-04-29T21:44:07.676Z,59.81
2023-04-29T21:46:37.283Z,59.74
2023-04-29T21:49:07.489Z,59.55
2023-04-29T21:51:35.759Z,59.82
2023-04-29T21:54:05.909Z,59.55
2023-04-29T21:56:34.361Z,59.36
2023-04-29T21:59:02.945Z,58.85
2023-04-29T22:01:48.602Z,58.52
2023-04-29T22:04:18.865Z,58.32
2023-04-29T22:06:46.612Z,58.42
2023-04-29T22:09:14.441Z,58.48
2023-04-29T22:11:42.415Z,58.57
2023-04-29T22:14:10.055Z,58.65
2023-04-29T22:16:38.013Z,58.52
2023-04-29T22:19:07.607Z,58.77
2023-04-29T22:21:38.126Z,58.74
2023-04-29T22:24:06.374Z,58.77
2023-04-29T22:26:33.965Z,58.74
2023-04-29T22:29:01.581Z,59.30
2023-04-29T22:31:29.301Z,59.10
2023-04-29T22:33:56.931Z,59.15
2023-04-29T22:36:24.566Z,59.22
2023-04-29T22:38:53.554Z,59.15
2023-04-29T22:41:21.656Z,59.55
2023-04-29T22:43:49.286Z,59.28
2023-04-29T22:46:16.989Z,59.36
2023-04-29T22:48:44.618Z,59.48
2023-04-29T22:51:12.310Z,59.69
2023-04-29T22:53:39.981Z,59.59
2023-04-29T22:56:09.167Z,59.58
2023-04-29T22:58:36.859Z,59.43
2023-04-29T23:01:04.510Z,59.63
2023-04-29T23:03:32.142Z,59.71
2023-04-29T23:06:00.343Z,59.98
2023-04-29T23:08:28.261Z,59.77
2023-04-29T23:10:56.016Z,59.74
2023-04-29T23:13:25.060Z,59.87
2023-04-29T23:15:55.803Z,59.70
2023-04-29T23:18:23.512Z,59.79
2023-04-29T23:20:51.266Z,59.68
2023-04-29T23:23:18.912Z,59.50
2023-04-29T23:25:46.753Z,59.51
2023-04-29T23:28:14.491Z,59.88
2023-04-29T23:30:43.638Z,59.71
2023-04-29T23:33:11.284Z,59.49
2023-04-29T23:35:38.905Z,59.47
2023-04-29T23:38:06.564Z,59.50
2023-04-29T23:40:34.194Z,59.46
2023-04-29T23:43:02.052Z,59.54
2023-04-29T23:45:29.720Z,59.48
2023-04-29T23:47:58.823Z,59.46
2023-04-29T23:50:26.617Z,59.78
2023-04-29T23:52:54.310Z,59.47
2023-04-29T23:55:21.898Z,59.55
2023-04-29T23:57:49.561Z,59.52
